Time;durP1;ratioP1;P1;durP2;ratioP2;P2;SDS_P1;SDS_P2;PMS_P1;PMS_P2;Temp;Humidity;BMP_temperature;BMP_pressure;BME280_temperature;BME280_humidity;BME280_pressure;Samples;Min_cycle;Max_cycle;Signal;HPM_P1;HPM_P2
2022/12/25 00:00:18;;;;;;;4.47;3.25;;;10.80;99.90;;;;;;5105474;28;20024;-61
2022/12/25 00:02:44;;;;;;;3.80;3.28;;;10.80;99.90;;;;;;5104122;28;20032;-61
2022/12/25 00:05:10;;;;;;;4.22;3.50;;;10.80;99.90;;;;;;5105373;28;20036;-60
2022/12/25 00:07:35;;;;;;;4.70;3.55;;;10.80;99.90;;;;;;5103816;28;20068;-61
2022/12/25 00:10:01;;;;;;;5.10;3.80;;;10.80;99.90;;;;;;5105290;28;20032;-61
2022/12/25 00:12:26;;;;;;;4.68;3.92;;;10.80;99.90;;;;;;5103938;28;20076;-61
2022/12/25 00:14:52;;;;;;;3.95;3.55;;;10.80;99.90;;;;;;5103716;28;20019;-61
2022/12/25 00:17:17;;;;;;;4.13;3.70;;;10.80;99.90;;;;;;5104740;28;20032;-61
2022/12/25 00:19:43;;;;;;;4.32;3.55;;;10.80;99.90;;;;;;5103162;28;20028;-61
2022/12/25 00:22:08;;;;;;;4.30;3.65;;;10.80;99.90;;;;;;5103895;28;20028;-60
2022/12/25 00:24:34;;;;;;;5.50;3.83;;;10.80;99.90;;;;;;5103696;28;20107;-61
2022/12/25 00:26:59;;;;;;;4.95;4.22;;;10.80;99.90;;;;;;5104989;28;20032;-60
2022/12/25 00:29:25;;;;;;;4.40;3.85;;;10.80;99.90;;;;;;5105045;28;20034;-60
2022/12/25 00:31:50;;;;;;;4.40;3.95;;;10.80;99.90;;;;;;5103882;28;20024;-61
2022/12/25 00:34:16;;;;;;;8.45;4.80;;;10.80;99.90;;;;;;5103651;28;20020;-61
2022/12/25 00:36:41;;;;;;;5.10;4.25;;;10.80;99.90;;;;;;5104998;28;20036;-61
2022/12/25 00:39:07;;;;;;;6.47;4.43;;;10.80;99.90;;;;;;5103529;28;20027;-61
2022/12/25 00:44:16;;;;;;;4.93;4.32;;;10.80;99.90;;;;;;5104750;28;20089;-60
2022/12/25 00:46:42;;;;;;;6.03;4.65;;;10.80;99.90;;;;;;5103588;28;20021;-61
2022/12/25 00:49:08;;;;;;;5.50;4.63;;;10.80;99.90;;;;;;5103520;28;20073;-61
2022/12/25 00:51:34;;;;;;;4.20;3.80;;;10.80;99.90;;;;;;5086438;28;20055;-61
2022/12/25 00:53:59;;;;;;;4.72;4.18;;;10.70;99.90;;;;;;5103315;28;20024;-61
2022/12/25 00:56:25;;;;;;;5.00;4.15;;;10.80;99.90;;;;;;5103736;28;20031;-60
2022/12/25 00:58:50;;;;;;;6.57;4.55;;;10.80;99.90;;;;;;5105568;28;20062;-61
2022/12/25 01:01:16;;;;;;;5.65;4.65;;;10.70;99.90;;;;;;5105303;28;20032;-61
2022/12/25 01:03:41;;;;;;;5.35;4.47;;;10.80;99.90;;;;;;5103416;28;20024;-61
2022/12/25 01:06:07;;;;;;;5.07;4.40;;;10.70;99.90;;;;;;5103403;28;20020;-60
2022/12/25 01:08:35;;;;;;;5.53;4.45;;;10.70;99.90;;;;;;5104696;28;20464;-61
2022/12/25 01:11:03;;;;;;;6.03;4.22;;;10.70;99.90;;;;;;5103215;28;20020;-61
2022/12/25 01:13:29;;;;;;;5.03;4.53;;;10.70;99.90;;;;;;5103303;28;20067;-61
2022/12/25 01:15:54;;;;;;;5.75;4.38;;;10.70;99.90;;;;;;5103322;28;20024;-60
2022/12/25 01:18:20;;;;;;;5.15;4.43;;;10.70;99.90;;;;;;5103080;28;20049;-60
2022/12/25 01:20:46;;;;;;;5.82;4.13;;;10.70;99.90;;;;;;5103248;28;20032;-61
2022/12/25 01:23:12;;;;;;;4.88;4.30;;;10.80;99.90;;;;;;5103194;28;20030;-60
2022/12/25 01:25:37;;;;;;;4.85;4.25;;;10.70;99.90;;;;;;5104494;28;20050;-61
2022/12/25 01:28:03;;;;;;;5.05;4.47;;;10.70;99.90;;;;;;5103102;28;20057;-60
2022/12/25 01:30:30;;;;;;;5.88;4.50;;;10.70;99.90;;;;;;5105621;28;20036;-61
2022/12/25 01:32:55;;;;;;;5.75;4.70;;;10.70;99.90;;;;;;5106925;28;20020;-61
2022/12/25 01:35:21;;;;;;;6.80;4.50;;;10.70;99.90;;;;;;5106954;28;20483;-60
2022/12/25 01:37:47;;;;;;;5.40;4.25;;;10.70;99.90;;;;;;5089840;28;20401;-60
2022/12/25 01:40:12;;;;;;;5.18;4.25;;;10.70;99.90;;;;;;5106653;28;20044;-61
2022/12/25 01:42:38;;;;;;;4.78;4.32;;;10.70;99.90;;;;;;5108112;28;20032;-61
2022/12/25 01:45:25;;;;;;;6.18;4.40;;;10.70;99.90;;;;;;5106453;28;20111;-61
2022/12/25 01:47:50;;;;;;;5.65;4.50;;;10.70;99.90;;;;;;5106437;28;20028;-61
2022/12/25 01:50:16;;;;;;;5.10;4.60;;;10.70;99.90;;;;;;5106610;28;20096;-61
2022/12/25 01:52:41;;;;;;;5.07;4.57;;;10.70;99.90;;;;;;5106404;28;20039;-61
2022/12/25 01:55:08;;;;;;;5.50;5.00;;;10.70;99.90;;;;;;5106720;28;20024;-61
2022/12/25 01:57:35;;;;;;;6.13;4.50;;;10.70;99.90;;;;;;5106519;28;20085;-61
2022/12/25 02:00:00;;;;;;;5.35;4.85;;;10.70;99.90;;;;;;5089381;28;20024;-61
2022/12/25 02:02:26;;;;;;;5.55;4.43;;;10.70;99.90;;;;;;5106407;28;20107;-61
2022/12/25 02:05:02;;;;;;;5.22;4.60;;;10.70;99.90;;;;;;5106224;28;20034;-60
2022/12/25 02:07:28;;;;;;;6.22;4.88;;;10.70;99.90;;;;;;5106300;28;20028;-61
2022/12/25 02:09:54;;;;;;;5.25;4.60;;;10.60;99.90;;;;;;5105973;28;20534;-60
2022/12/25 02:12:24;;;;;;;6.95;5.28;;;10.70;99.90;;;;;;5106125;28;20032;-60
2022/12/25 02:14:50;;;;;;;5.70;5.05;;;10.70;99.90;;;;;;5106012;28;20111;-60
2022/12/25 02:17:39;;;;;;;5.32;4.82;;;10.70;99.90;;;;;;5106000;28;20095;-61
2022/12/25 02:20:46;;;;;;;5.05;4.50;;;10.70;99.90;;;;;;5105988;28;20036;-61
2022/12/25 02:23:48;;;;;;;5.03;4.53;;;10.70;99.90;;;;;;5105790;28;20047;-61
2022/12/25 02:26:34;;;;;;;5.65;4.70;;;10.60;99.90;;;;;;5107152;28;20055;-61
2022/12/25 02:29:16;;;;;;;6.40;5.03;;;10.70;99.90;;;;;;5091274;28;20099;-61
2022/12/25 02:31:47;;;;;;;5.72;5.13;;;10.60;99.90;;;;;;5105715;28;20062;-61
2022/12/25 02:34:34;;;;;;;5.45;4.60;;;10.60;99.90;;;;;;5105989;28;20028;-60
2022/12/25 02:37:11;;;;;;;5.60;5.00;;;10.60;99.90;;;;;;5106090;28;20024;-61
2022/12/25 02:39:59;;;;;;;5.50;4.97;;;10.60;99.90;;;;;;5105755;28;20031;-61
2022/12/25 03:08:15;;;;;;;7.20;6.10;;;10.60;99.90;;;;;;5105684;28;20058;-61
2022/12/25 03:13:30;;;;;;;6.00;5.40;;;10.60;99.90;;;;;;5106106;28;20034;-60
2022/12/25 03:18:39;;;;;;;8.35;4.65;;;10.50;99.90;;;;;;5104912;28;20042;-61
2022/12/25 03:26:55;;;;;;;6.80;6.10;;;10.60;99.90;;;;;;5091043;28;20478;-60
2022/12/25 03:32:23;;;;;;;6.00;5.30;;;10.50;99.90;;;;;;5104801;28;20031;-61
2022/12/25 03:35:21;;;;;;;6.43;5.78;;;10.50;99.90;;;;;;5104507;28;20062;-60
2022/12/25 04:36:11;;;;;;;6.97;6.28;;;10.50;99.90;;;;;;5104905;28;20030;-60
2022/12/25 04:38:37;;;;;;;6.38;5.55;;;10.50;99.90;;;;;;5103704;28;20036;-60
2022/12/25 04:41:02;;;;;;;7.35;6.28;;;10.40;99.90;;;;;;5104791;28;20096;-60
2022/12/25 04:43:28;;;;;;;6.43;5.82;;;10.40;99.90;;;;;;5103435;28;20032;-60
2022/12/25 04:45:57;;;;;;;8.15;6.00;;;10.40;99.90;;;;;;5103944;28;20050;-60
2022/12/25 04:48:24;;;;;;;6.70;5.97;;;10.40;99.90;;;;;;5104632;28;20107;-61
2022/12/25 04:50:49;;;;;;;6.90;6.20;;;10.40;99.90;;;;;;5104893;28;20032;-61
2022/12/25 04:53:15;;;;;;;6.22;5.63;;;10.50;99.90;;;;;;5103510;28;20054;-60
2022/12/25 04:55:41;;;;;;;6.68;5.93;;;10.40;99.90;;;;;;5086351;28;20044;-60
2022/12/25 04:58:06;;;;;;;6.82;6.13;;;10.40;99.90;;;;;;5103425;28;20024;-60
2022/12/25 05:00:32;;;;;;;7.35;6.60;;;10.40;99.90;;;;;;5103387;28;20031;-60
2022/12/25 05:02:58;;;;;;;7.55;6.47;;;10.40;99.90;;;;;;5103083;28;20035;-60
2022/12/25 05:05:23;;;;;;;7.30;6.60;;;10.40;99.90;;;;;;5105801;28;20047;-60
2022/12/25 05:07:49;;;;;;;7.03;6.32;;;10.40;99.90;;;;;;5108527;28;20460;-60
2022/12/25 05:10:14;;;;;;;6.85;6.15;;;10.40;99.90;;;;;;5108956;28;20039;-60
2022/12/25 05:12:40;;;;;;;7.45;6.70;;;10.40;99.90;;;;;;5108448;28;20070;-60
2022/12/25 05:15:06;;;;;;;7.00;6.28;;;10.40;99.90;;;;;;5090220;28;20028;-60
2022/12/25 05:17:32;;;;;;;9.85;7.20;;;10.40;99.90;;;;;;5108631;28;20025;-61
2022/12/25 05:19:57;;;;;;;7.55;6.63;;;10.40;99.90;;;;;;5108573;28;20452;-61
2022/12/25 05:22:23;;;;;;;7.50;6.65;;;10.40;99.90;;;;;;5107099;28;20028;-60
2022/12/25 05:24:48;;;;;;;7.05;6.35;;;10.40;99.90;;;;;;5107190;28;20083;-60
2022/12/25 05:27:14;;;;;;;7.30;6.60;;;10.40;99.90;;;;;;5107214;28;20039;-60
2022/12/25 05:29:39;;;;;;;7.03;6.07;;;10.40;99.90;;;;;;5108536;28;20024;-60
2022/12/25 05:32:05;;;;;;;7.70;6.90;;;10.40;99.90;;;;;;5106993;28;20051;-61
2022/12/25 05:34:31;;;;;;;7.25;6.35;;;10.40;99.90;;;;;;5106805;28;20084;-61
2022/12/25 05:36:56;;;;;;;8.57;7.25;;;10.40;99.90;;;;;;5089747;28;20024;-61
2022/12/25 05:39:22;;;;;;;7.20;6.47;;;10.40;99.90;;;;;;5106762;28;20020;-61
2022/12/25 05:41:48;;;;;;;7.63;6.80;;;10.40;99.90;;;;;;5106708;28;20027;-61
2022/12/25 05:44:13;;;;;;;7.82;7.03;;;10.40;99.90;;;;;;5106569;28;20099;-61
2022/12/25 05:46:39;;;;;;;7.05;6.35;;;10.40;99.90;;;;;;5106576;28;20028;-61
2022/12/25 05:49:04;;;;;;;7.00;6.25;;;10.40;99.90;;;;;;5106487;28;20043;-60
2022/12/25 05:51:30;;;;;;;8.57;7.78;;;10.40;99.90;;;;;;5106469;28;20337;-61
2022/12/25 05:53:55;;;;;;;7.35;6.40;;;10.40;99.90;;;;;;5106339;28;20086;-61
2022/12/25 05:56:21;;;;;;;7.97;7.15;;;10.40;99.90;;;;;;5107993;28;20491;-60
2022/12/25 05:58:47;;;;;;;8.05;7.25;;;10.40;99.90;;;;;;5106291;28;20032;-60
2022/12/25 06:01:14;;;;;;;8.13;7.30;;;10.40;99.90;;;;;;5106227;28;20127;-60
2022/12/25 06:03:39;;;;;;;8.65;7.38;;;10.40;99.90;;;;;;5106247;28;20027;-61
2022/12/25 06:06:06;;;;;;;7.93;6.97;;;10.40;99.90;;;;;;5106172;28;20043;-60
2022/12/25 06:08:33;;;;;;;8.27;7.35;;;10.40;99.90;;;;;;5105995;28;20047;-60
2022/12/25 06:10:58;;;;;;;8.48;7.57;;;10.40;99.90;;;;;;5107560;28;20030;-60
2022/12/25 06:13:24;;;;;;;7.97;7.18;;;10.40;99.90;;;;;;5105805;28;20103;-60
2022/12/25 06:15:49;;;;;;;8.50;7.65;;;10.40;99.90;;;;;;5107468;28;20031;-61
2022/12/25 06:18:15;;;;;;;8.63;7.72;;;10.40;99.90;;;;;;5107363;28;20028;-60
2022/12/25 06:20:40;;;;;;;8.57;7.68;;;10.40;99.90;;;;;;5106051;28;20028;-60
2022/12/25 06:23:06;;;;;;;8.98;8.05;;;10.40;99.90;;;;;;5107133;28;20032;-60
2022/12/25 06:25:31;;;;;;;8.35;7.45;;;10.40;99.90;;;;;;5106069;28;20051;-60
2022/12/25 06:27:57;;;;;;;8.85;7.88;;;10.40;99.90;;;;;;5105649;28;20123;-60
2022/12/25 06:30:22;;;;;;;8.70;7.35;;;10.40;99.90;;;;;;5105748;28;20149;-60
2022/12/25 06:32:48;;;;;;;11.25;7.30;;;10.40;99.90;;;;;;5107057;28;20115;-60
2022/12/25 06:35:13;;;;;;;8.77;7.88;;;10.40;99.90;;;;;;5105721;28;20016;-60
2022/12/25 06:37:39;;;;;;;8.77;7.88;;;10.40;99.90;;;;;;5107061;28;20031;-60
2022/12/25 06:40:05;;;;;;;9.32;8.43;;;10.30;99.90;;;;;;5105662;28;20405;-61
2022/12/25 06:42:31;;;;;;;9.77;8.52;;;10.40;99.90;;;;;;5105749;28;20036;-60
2022/12/25 06:44:56;;;;;;;8.70;7.80;;;10.30;99.90;;;;;;5106691;28;20099;-61
2022/12/25 06:47:22;;;;;;;10.00;8.63;;;10.40;99.90;;;;;;5105369;28;20039;-60
2022/12/25 06:49:47;;;;;;;10.52;8.27;;;10.30;99.90;;;;;;5105376;28;20039;-60
2022/12/25 06:52:13;;;;;;;9.15;8.25;;;10.30;99.90;;;;;;5106659;28;20020;-60
2022/12/25 06:54:38;;;;;;;9.05;8.15;;;10.30;99.90;;;;;;5106811;28;20028;-61
2022/12/25 06:57:04;;;;;;;9.05;8.13;;;10.30;99.90;;;;;;5106621;28;20062;-60
2022/12/25 06:59:29;;;;;;;12.05;8.70;;;10.30;99.90;;;;;;5105282;28;20024;-60
2022/12/25 07:01:56;;;;;;;9.15;8.25;;;10.40;99.90;;;;;;5105044;28;20077;-60
2022/12/25 07:04:34;;;;;;;8.45;7.65;;;10.30;99.90;;;;;;5105021;28;20031;-60
2022/12/25 07:07:00;;;;;;;10.32;8.02;;;10.30;99.90;;;;;;5105069;28;20039;-61
2022/12/25 07:09:25;;;;;;;8.88;7.97;;;10.30;99.90;;;;;;5104989;28;20031;-60
2022/12/25 07:11:51;;;;;;;10.10;7.93;;;10.30;99.90;;;;;;5105075;28;20024;-60
2022/12/25 07:14:18;;;;;;;10.00;9.00;;;10.30;99.90;;;;;;5104963;28;20092;-61
2022/12/25 07:16:43;;;;;;;9.23;7.80;;;10.30;99.90;;;;;;5106217;28;20036;-58
2022/12/25 07:19:09;;;;;;;9.65;8.18;;;10.30;99.90;;;;;;5087505;28;20031;-60
2022/12/25 07:21:34;;;;;;;9.05;8.15;;;10.30;99.90;;;;;;5105865;28;20051;-60
2022/12/25 07:24:00;;;;;;;9.18;8.20;;;10.30;99.90;;;;;;5104743;28;20032;-60
2022/12/25 07:26:25;;;;;;;10.15;8.13;;;10.30;99.90;;;;;;5105986;28;20119;-60
2022/12/25 07:28:51;;;;;;;9.27;8.38;;;10.30;99.90;;;;;;5105543;28;20039;-60
2022/12/25 07:31:17;;;;;;;9.23;8.20;;;10.30;99.90;;;;;;5105958;28;20042;-60
2022/12/25 07:33:42;;;;;;;8.90;8.00;;;10.30;99.90;;;;;;5104610;28;20032;-60
2022/12/25 07:36:09;;;;;;;10.15;7.78;;;10.30;99.90;;;;;;5104931;28;20061;-61
2022/12/25 07:38:34;;;;;;;9.43;8.52;;;10.30;99.90;;;;;;5104496;28;20032;-60
2022/12/25 07:41:00;;;;;;;9.50;8.60;;;10.30;99.90;;;;;;5104574;28;20342;-60
2022/12/25 07:43:25;;;;;;;9.68;8.68;;;10.30;99.90;;;;;;5104075;28;20035;-60
2022/12/25 07:45:58;;;;;;;10.18;8.70;;;10.30;99.90;;;;;;5105814;28;20032;-60
2022/12/25 07:48:24;;;;;;;10.88;9.73;;;10.30;99.90;;;;;;5104227;28;20035;-60
2022/12/25 07:51:00;;;;;;;11.27;8.93;;;10.30;99.90;;;;;;5105686;28;20103;-61
2022/12/25 07:53:26;;;;;;;10.98;9.82;;;10.30;99.90;;;;;;5104139;28;20046;-60
2022/12/25 07:55:56;;;;;;;10.82;9.15;;;10.30;99.90;;;;;;5104216;28;20020;-60
2022/12/25 07:58:21;;;;;;;11.05;9.23;;;10.40;99.90;;;;;;5104127;28;20035;-61
2022/12/25 08:00:47;;;;;;;10.15;9.10;;;10.30;99.90;;;;;;5104018;28;20028;-60
2022/12/25 08:03:14;;;;;;;9.63;8.65;;;10.30;99.90;;;;;;5105251;28;20028;-60
2022/12/25 08:05:40;;;;;;;9.20;8.15;;;10.30;99.90;;;;;;5104086;28;20032;-60
2022/12/25 08:08:05;;;;;;;10.02;9.02;;;10.30;99.90;;;;;;5103623;28;20038;-61
2022/12/25 08:10:31;;;;;;;9.82;8.82;;;10.30;99.90;;;;;;5105209;28;20040;-60
2022/12/25 08:12:56;;;;;;;10.38;8.90;;;10.30;99.90;;;;;;5103808;28;20027;-60
2022/12/25 08:15:22;;;;;;;10.63;8.63;;;10.30;99.90;;;;;;5103881;28;20080;-60
2022/12/25 08:17:47;;;;;;;10.15;9.15;;;10.30;99.90;;;;;;5103944;28;20098;-60
2022/12/25 08:20:13;;;;;;;9.60;8.63;;;10.30;99.90;;;;;;5105327;28;20032;-60
2022/12/25 08:22:38;;;;;;;9.45;8.55;;;10.30;99.90;;;;;;5105012;28;20028;-60
2022/12/25 08:25:04;;;;;;;10.10;8.90;;;10.30;99.90;;;;;;5103924;28;20024;-60
2022/12/25 08:27:30;;;;;;;9.38;8.48;;;10.30;99.90;;;;;;5104856;28;20080;-60
2022/12/25 08:29:55;;;;;;;9.52;8.48;;;10.30;99.90;;;;;;5105218;28;20032;-60
2022/12/25 08:32:21;;;;;;;9.43;8.43;;;10.30;99.90;;;;;;5105116;28;20059;-61
2022/12/25 08:34:48;;;;;;;9.05;8.15;;;10.30;99.90;;;;;;5103716;28;20035;-61
2022/12/25 08:37:13;;;;;;;11.07;9.27;;;10.30;99.90;;;;;;5103478;28;20076;-60
2022/12/25 08:39:39;;;;;;;9.90;8.38;;;10.30;99.90;;;;;;5106152;28;20028;-60
2022/12/25 08:42:04;;;;;;;8.88;7.93;;;10.30;99.90;;;;;;5109078;28;20028;-60
2022/12/25 08:44:30;;;;;;;9.38;8.30;;;10.30;99.90;;;;;;5108906;28;20042;-60
2022/12/25 08:46:55;;;;;;;9.57;8.60;;;10.30;99.90;;;;;;5108936;28;20036;-60
2022/12/25 08:49:21;;;;;;;9.10;8.20;;;10.30;99.90;;;;;;5107484;28;20028;-61
2022/12/25 08:51:46;;;;;;;9.27;7.80;;;10.30;99.90;;;;;;5107701;28;20030;-60
2022/12/25 08:54:12;;;;;;;9.20;8.30;;;10.30;99.90;;;;;;5090610;28;20020;-60
2022/12/25 08:56:37;;;;;;;9.40;8.40;;;10.30;99.90;;;;;;5107742;28;20507;-61
2022/12/25 08:59:03;;;;;;;10.50;9.35;;;10.30;99.90;;;;;;5107651;28;20403;-60
2022/12/25 09:01:28;;;;;;;9.80;8.77;;;10.30;99.90;;;;;;5107587;28;20028;-61
2022/12/25 09:03:54;;;;;;;8.73;7.82;;;10.30;99.90;;;;;;5108751;28;20028;-60
2022/12/25 09:06:20;;;;;;;8.82;7.78;;;10.30;99.90;;;;;;5107541;28;20345;-60
2022/12/25 09:08:45;;;;;;;9.55;8.55;;;10.30;99.90;;;;;;5107163;28;20039;-61
2022/12/25 09:11:11;;;;;;;9.70;8.80;;;10.30;99.90;;;;;;5107420;28;20028;-60
2022/12/25 09:13:37;;;;;;;9.73;8.73;;;10.30;99.90;;;;;;5108514;28;20020;-61
2022/12/25 09:16:07;;;;;;;9.52;8.63;;;10.30;99.90;;;;;;5107160;28;20036;-60
2022/12/25 09:18:32;;;;;;;9.63;8.65;;;10.30;99.90;;;;;;5108612;28;20032;-60
2022/12/25 09:20:59;;;;;;;9.23;8.32;;;10.30;99.90;;;;;;5107192;28;20035;-60
2022/12/25 09:23:25;;;;;;;10.00;9.00;;;10.30;99.90;;;;;;5107112;28;20115;-60
2022/12/25 09:25:50;;;;;;;9.25;8.35;;;10.30;99.90;;;;;;5107144;28;20111;-61
2022/12/25 09:28:16;;;;;;;9.65;8.68;;;10.30;99.90;;;;;;5106815;28;20047;-60
2022/12/25 09:30:42;;;;;;;9.52;8.52;;;10.30;99.90;;;;;;5107179;28;20082;-61
2022/12/25 09:33:07;;;;;;;9.50;8.60;;;10.30;99.90;;;;;;5108220;28;20024;-60
2022/12/25 09:35:33;;;;;;;8.65;7.85;;;10.30;99.90;;;;;;5106885;28;20020;-60
2022/12/25 09:37:58;;;;;;;9.90;8.88;;;10.30;99.90;;;;;;5108017;28;20024;-61
2022/12/25 09:40:24;;;;;;;10.48;9.48;;;10.30;99.90;;;;;;5106991;28;20039;-61
2022/12/25 09:42:52;;;;;;;9.50;8.60;;;10.30;99.90;;;;;;5089832;28;20026;-60
2022/12/25 09:45:23;;;;;;;8.80;7.75;;;10.30;99.90;;;;;;5106342;28;20123;-60
2022/12/25 09:47:48;;;;;;;9.40;8.50;;;10.30;99.90;;;;;;5106439;28;20036;-61
2022/12/25 09:50:22;;;;;;;10.18;9.18;;;10.30;99.90;;;;;;5106454;28;20060;-61
2022/12/25 09:52:53;;;;;;;10.70;8.95;;;10.30;99.90;;;;;;5106878;28;20086;-60
2022/12/25 09:55:23;;;;;;;10.00;9.00;;;10.30;99.90;;;;;;5106630;28;20048;-60
2022/12/25 09:57:56;;;;;;;9.00;8.10;;;10.30;99.90;;;;;;5106704;28;20024;-60
2022/12/25 10:00:23;;;;;;;9.45;8.55;;;10.30;99.90;;;;;;5106329;28;20039;-60
2022/12/25 10:03:09;;;;;;;10.23;9.18;;;10.30;99.90;;;;;;5106276;28;20024;-61
2022/12/25 10:06:12;;;;;;;9.93;9.03;;;10.30;99.90;;;;;;5106477;28;20040;-60
2022/12/25 10:09:01;;;;;;;10.27;9.05;;;10.30;99.90;;;;;;5106065;28;20035;-60
2022/12/25 10:11:41;;;;;;;9.00;8.10;;;10.30;99.90;;;;;;5107018;28;20043;-60
2022/12/25 10:14:13;;;;;;;8.70;7.90;;;10.30;99.90;;;;;;5107389;28;20487;-61
2022/12/25 10:16:50;;;;;;;9.95;9.05;;;10.30;99.90;;;;;;5106447;28;20042;-60
2022/12/25 10:19:23;;;;;;;9.00;8.10;;;10.30;99.90;;;;;;5105859;28;20151;-60
2022/12/25 10:21:51;;;;;;;9.88;8.75;;;10.30;99.90;;;;;;5105959;28;20028;-61
2022/12/25 10:24:25;;;;;;;9.50;8.50;;;10.30;99.90;;;;;;5106021;28;20054;-60
2022/12/25 10:26:51;;;;;;;9.60;8.53;;;10.30;99.90;;;;;;5107149;28;20024;-60
2022/12/25 10:29:20;;;;;;;10.35;8.52;;;10.40;99.90;;;;;;5105773;28;20058;-61
2022/12/25 10:31:47;;;;;;;9.85;8.85;;;10.40;99.90;;;;;;5107251;28;20056;-60
2022/12/25 10:34:13;;;;;;;10.65;9.55;;;10.30;99.90;;;;;;5105832;28;20032;-61
2022/12/25 10:36:39;;;;;;;9.45;8.55;;;10.40;99.90;;;;;;5105965;28;20052;-60
2022/12/25 10:39:04;;;;;;;10.52;9.43;;;10.40;99.90;;;;;;5088859;28;20149;-61
2022/12/25 10:41:42;;;;;;;10.43;9.35;;;10.40;99.90;;;;;;5105650;28;20085;-61
2022/12/25 10:44:19;;;;;;;10.10;8.88;;;10.40;99.90;;;;;;5106736;28;20100;-60
2022/12/25 10:46:48;;;;;;;9.65;8.70;;;10.40;99.90;;;;;;5105708;28;20028;-61
2022/12/25 10:49:15;;;;;;;10.13;9.13;;;10.40;99.90;;;;;;5105208;28;20027;-60
2022/12/25 10:51:40;;;;;;;9.07;8.18;;;10.40;99.90;;;;;;5105289;28;20040;-60
2022/12/25 10:54:25;;;;;;;9.48;8.60;;;10.40;99.90;;;;;;5105352;28;20032;-61
2022/12/25 10:57:06;;;;;;;9.10;8.20;;;10.40;99.90;;;;;;5106552;28;20097;-61
2022/12/25 10:59:44;;;;;;;9.20;8.30;;;10.40;99.90;;;;;;5105207;28;20039;-61
2022/12/25 11:02:23;;;;;;;9.20;8.18;;;10.40;99.90;;;;;;5104594;28;20113;-60
2022/12/25 11:04:50;;;;;;;8.18;7.45;;;10.40;99.90;;;;;;5105125;28;20096;-61
2022/12/25 11:07:18;;;;;;;8.77;7.97;;;10.50;99.90;;;;;;5106393;28;20047;-61
2022/12/25 11:09:59;;;;;;;8.40;7.55;;;10.40;99.90;;;;;;5106503;28;20164;-60
2022/12/25 11:12:29;;;;;;;8.18;7.35;;;10.40;99.90;;;;;;5104985;28;20032;-60
2022/12/25 11:14:56;;;;;;;8.90;7.68;;;10.40;99.90;;;;;;5104896;28;20035;-60
2022/12/25 11:17:24;;;;;;;10.30;8.00;;;10.50;99.90;;;;;;5104895;28;20039;-60
2022/12/25 11:20:14;;;;;;;9.70;7.43;;;10.50;99.90;;;;;;5104926;28;20046;-60
2022/12/25 11:22:44;;;;;;;9.23;8.25;;;10.50;99.90;;;;;;5106262;28;20054;-60
2022/12/25 11:25:13;;;;;;;8.63;7.68;;;10.50;99.90;;;;;;5104697;28;20028;-61
2022/12/25 11:27:39;;;;;;;9.13;8.05;;;10.50;99.90;;;;;;5106005;28;20032;-60
2022/12/25 11:30:05;;;;;;;9.00;7.93;;;10.50;99.90;;;;;;5104635;28;20051;-60
2022/12/25 11:32:33;;;;;;;8.75;7.45;;;10.60;99.90;;;;;;5104764;28;20028;-60
2022/12/25 11:34:59;;;;;;;8.95;8.07;;;10.60;99.90;;;;;;5104685;28;20024;-60
2022/12/25 11:37:32;;;;;;;9.50;7.95;;;10.60;99.90;;;;;;5104782;28;20028;-60
2022/12/25 11:39:58;;;;;;;8.20;7.40;;;10.60;99.90;;;;;;5104446;28;20104;-61
2022/12/25 11:42:25;;;;;;;8.88;7.13;;;10.60;99.90;;;;;;5104637;28;20186;-60
2022/12/25 11:45:05;;;;;;;7.80;7.00;;;10.60;99.90;;;;;;5104279;28;20040;-61
2022/12/25 11:47:39;;;;;;;7.03;6.32;;;10.70;99.90;;;;;;5104310;28;20032;-61
2022/12/25 11:50:42;;;;;;;7.60;6.60;;;10.70;99.90;;;;;;5105754;28;20074;-60
2022/12/25 11:53:17;;;;;;;6.97;6.28;;;10.70;99.90;;;;;;5104236;28;20100;-61
2022/12/25 11:55:55;;;;;;;7.63;6.75;;;10.70;99.90;;;;;;5104362;28;20062;-61
2022/12/25 11:58:39;;;;;;;7.32;6.55;;;10.70;99.90;;;;;;5087657;28;20047;-60
2022/12/25 12:01:15;;;;;;;8.02;6.47;;;10.80;99.90;;;;;;5104884;28;20056;-61
2022/12/25 12:03:40;;;;;;;7.53;6.35;;;10.80;99.90;;;;;;5104045;28;20047;-61
2022/12/25 12:06:18;;;;;;;6.88;6.18;;;10.90;99.90;;;;;;5104648;28;20036;-61
2022/12/25 12:08:44;;;;;;;7.32;6.50;;;10.80;99.90;;;;;;5104078;28;20035;-60
2022/12/25 12:11:15;;;;;;;6.88;6.18;;;10.90;99.90;;;;;;5104268;28;20027;-60
2022/12/25 12:13:59;;;;;;;6.40;5.80;;;10.80;99.90;;;;;;5104014;28;20047;-60
2022/12/25 12:16:25;;;;;;;7.05;5.68;;;10.90;99.90;;;;;;5103981;28;20020;-60
2022/12/25 12:18:50;;;;;;;8.35;5.70;;;10.90;99.90;;;;;;5087179;28;20053;-61
2022/12/25 12:21:27;;;;;;;10.50;5.93;;;10.90;99.90;;;;;;5104279;28;20032;-61
2022/12/25 12:24:13;;;;;;;18.67;6.53;;;11.00;99.90;;;;;;5104330;28;20032;-61
2022/12/25 12:26:39;;;;;;;9.90;6.15;;;10.90;99.90;;;;;;5104276;28;20047;-60
2022/12/25 12:29:06;;;;;;;5.95;5.35;;;11.00;99.90;;;;;;5103759;28;20051;-61
2022/12/25 12:31:45;;;;;;;8.80;5.78;;;11.00;99.90;;;;;;5086825;28;20101;-60
2022/12/25 12:34:41;;;;;;;11.10;6.25;;;11.00;99.90;;;;;;5103692;28;20074;-61
2022/12/25 12:37:15;;;;;;;11.13;6.50;;;11.00;99.90;;;;;;5103629;28;20456;-60
2022/12/25 12:39:40;;;;;;;22.90;6.07;;;11.00;99.90;;;;;;5103641;28;20066;-60
2022/12/25 12:42:43;;;;;;;17.83;6.22;;;11.10;99.90;;;;;;5103556;28;20448;-61
2022/12/25 12:45:17;;;;;;;12.75;5.97;;;11.00;99.90;;;;;;5102994;28;20117;-61
2022/12/25 12:47:45;;;;;;;14.27;5.90;;;11.00;99.90;;;;;;5103627;28;20028;-60
2022/12/25 12:50:33;;;;;;;13.38;5.85;;;11.10;99.90;;;;;;5103731;28;20032;-60
2022/12/25 12:52:59;;;;;;;22.40;6.13;;;11.10;99.90;;;;;;5105014;28;20028;-60
2022/12/25 12:55:32;;;;;;;21.50;6.30;;;11.10;99.90;;;;;;5103798;28;20020;-60
2022/12/25 12:58:02;;;;;;;25.85;7.72;;;11.10;99.90;;;;;;5104684;28;20024;-60
2022/12/25 13:00:52;;;;;;;21.92;7.55;;;11.20;99.90;;;;;;5103874;28;20031;-60
2022/12/25 13:03:26;;;;;;;23.52;8.10;;;11.10;99.90;;;;;;5099417;28;20028;-60
2022/12/25 13:05:59;;;;;;;14.77;6.07;;;11.20;99.90;;;;;;5103397;28;20082;-61
2022/12/25 13:09:01;;;;;;;40.70;9.05;;;11.20;99.90;;;;;;5103450;28;20108;-61
2022/12/25 13:11:31;;;;;;;38.47;8.18;;;11.20;99.90;;;;;;5103649;28;20135;-61
2022/12/25 13:13:58;;;;;;;30.73;7.00;;;11.20;99.90;;;;;;5103487;28;20119;-61
2022/12/25 13:16:37;;;;;;;11.98;5.15;;;11.20;99.90;;;;;;5103450;28;20028;-60
2022/12/25 13:19:07;;;;;;;16.65;6.22;;;11.30;99.90;;;;;;5103739;28;20084;-58
2022/12/25 13:21:33;;;;;;;32.15;7.57;;;11.30;99.90;;;;;;5103707;28;20051;-58
2022/12/25 13:24:07;;;;;;;26.58;7.15;;;11.30;99.90;;;;;;5102999;28;20028;-58
2022/12/25 13:26:33;;;;;;;30.33;6.97;;;11.40;99.90;;;;;;5105915;28;20046;-58
2022/12/25 13:28:58;;;;;;;19.08;7.45;;;11.40;99.90;;;;;;5106297;28;20107;-58
2022/12/25 13:31:25;;;;;;;28.20;6.72;;;11.30;99.90;;;;;;5107802;28;20162;-58
2022/12/25 13:34:04;;;;;;;35.22;7.32;;;11.30;99.90;;;;;;5106910;28;20081;-58
2022/12/25 13:36:35;;;;;;;28.42;7.95;;;11.40;99.90;;;;;;5106897;28;20028;-58
2022/12/25 13:39:01;;;;;;;22.55;6.82;;;11.40;99.90;;;;;;5089902;28;20024;-58
2022/12/25 13:44:20;;;;;;;15.40;6.00;;;11.40;99.90;;;;;;5107042;28;20047;-57
2022/12/25 13:46:46;;;;;;;18.05;5.82;;;11.40;99.90;;;;;;5107187;28;20028;-58
2022/12/25 13:49:14;;;;;;;16.33;6.15;;;11.40;99.90;;;;;;5107991;28;20028;-57
2022/12/25 13:51:39;;;;;;;10.85;5.75;;;11.40;99.90;;;;;;5107866;28;20079;-58
2022/12/25 13:54:05;;;;;;;12.45;5.18;;;11.40;99.90;;;;;;5106513;28;20036;-58
2022/12/25 13:56:31;;;;;;;9.32;5.57;;;11.40;99.90;;;;;;5108029;28;20038;-58
2022/12/25 13:58:56;;;;;;;11.77;5.70;;;11.40;99.90;;;;;;5108240;28;20036;-58
2022/12/25 14:01:22;;;;;;;13.07;5.75;;;11.40;99.90;;;;;;5089756;28;20028;-57
2022/12/25 14:03:47;;;;;;;14.32;5.93;;;11.40;99.90;;;;;;5107680;28;20523;-58
2022/12/25 14:06:28;;;;;;;17.00;6.15;;;11.40;99.90;;;;;;5106585;28;20066;-58
2022/12/25 14:08:54;;;;;;;11.38;5.95;;;11.40;99.90;;;;;;5106535;28;20051;-58
2022/12/25 14:11:21;;;;;;;11.50;5.97;;;11.40;99.90;;;;;;5106465;28;20464;-58
2022/12/25 14:13:47;;;;;;;12.85;5.32;;;11.40;99.90;;;;;;5106329;28;20047;-58
2022/12/25 14:16:15;;;;;;;13.95;6.22;;;11.40;99.90;;;;;;5106970;28;20051;-60
2022/12/25 14:18:49;;;;;;;13.77;5.50;;;11.40;99.90;;;;;;5106347;28;20036;-60
2022/12/25 14:21:21;;;;;;;21.27;6.53;;;11.40;99.90;;;;;;5106078;28;20028;-60
2022/12/25 14:23:47;;;;;;;14.32;5.85;;;11.40;99.90;;;;;;5105980;28;20085;-60
2022/12/25 14:26:31;;;;;;;13.00;5.28;;;11.40;99.90;;;;;;5105834;28;20028;-60
2022/12/25 14:29:07;;;;;;;14.55;5.20;;;11.40;99.90;;;;;;5105608;28;20036;-60
2022/12/25 14:31:33;;;;;;;8.77;5.60;;;11.40;99.90;;;;;;5105867;28;20031;-60
2022/12/25 14:34:02;;;;;;;8.13;4.95;;;11.40;99.90;;;;;;5088705;28;20024;-60
2022/12/25 14:36:28;;;;;;;11.77;5.22;;;11.40;99.90;;;;;;5104896;28;20024;-60